sensor_id;sensor_type;location;lat;lon;timestamp;temperature;humidity
356;DHT22;62514;48.112;11.566;2024-03-08T00:00:12;0.80;1.00
356;DHT22;62514;48.112;11.566;2024-03-08T00:02:38;0.80;1.00
356;DHT22;62514;48.112;11.566;2024-03-08T00:05:08;0.80;1.00
356;DHT22;62514;48.112;11.566;2024-03-08T00:07:35;0.80;1.00
356;DHT22;62514;48.112;11.566;2024-03-08T00:10:02;0.70;1.00
356;DHT22;62514;48.112;11.566;2024-03-08T00:12:29;0.70;1.00
356;DHT22;62514;48.112;11.566;2024-03-08T00:14:55;0.70;1.00
356;DHT22;62514;48.112;11.566;2024-03-08T00:17:21;0.70;1.00
356;DHT22;62514;48.112;11.566;2024-03-08T00:19:50;0.70;1.00
356;DHT22;62514;48.112;11.566;2024-03-08T00:22:17;0.70;1.00
356;DHT22;62514;48.112;11.566;2024-03-08T00:24:43;0.60;1.00
356;DHT22;62514;48.112;11.566;2024-03-08T00:27:09;0.60;1.00
356;DHT22;62514;48.112;11.566;2024-03-08T00:29:37;0.50;1.00
356;DHT22;62514;48.112;11.566;2024-03-08T00:32:06;0.50;1.00
356;DHT22;62514;48.112;11.566;2024-03-08T00:34:36;0.60;1.00
356;DHT22;62514;48.112;11.566;2024-03-08T00:37:05;0.60;1.00
356;DHT22;62514;48.112;11.566;2024-03-08T00:39:31;0.60;1.00
356;DHT22;62514;48.112;11.566;2024-03-08T00:41:57;0.60;1.00
356;DHT22;62514;48.112;11.566;2024-03-08T00:44:23;0.60;1.00
356;DHT22;62514;48.112;11.566;2024-03-08T00:46:50;0.60;1.00
356;DHT22;62514;48.112;11.566;2024-03-08T00:49:16;0.60;1.00
356;DHT22;62514;48.112;11.566;2024-03-08T00:51:42;0.50;1.00
356;DHT22;62514;48.112;11.566;2024-03-08T00:54:09;0.50;1.00
356;DHT22;62514;48.112;11.566;2024-03-08T00:56:35;0.50;1.00
356;DHT22;62514;48.112;11.566;2024-03-08T00:59:01;0.50;1.00
356;DHT22;62514;48.112;11.566;2024-03-08T01:01:28;0.50;1.00
356;DHT22;62514;48.112;11.566;2024-03-08T01:03:55;0.50;1.00
356;DHT22;62514;48.112;11.566;2024-03-08T01:06:22;0.50;1.00
356;DHT22;62514;48.112;11.566;2024-03-08T01:08:48;0.40;1.00
356;DHT22;62514;48.112;11.566;2024-03-08T01:11:17;0.40;1.00
356;DHT22;62514;48.112;11.566;2024-03-08T01:13:43;0.40;1.00
356;DHT22;62514;48.112;11.566;2024-03-08T01:16:13;0.40;1.00
356;DHT22;62514;48.112;11.566;2024-03-08T01:18:39;0.40;1.00
356;DHT22;62514;48.112;11.566;2024-03-08T01:21:05;0.40;1.00
356;DHT22;62514;48.112;11.566;2024-03-08T01:23:31;0.40;1.00
356;DHT22;62514;48.112;11.566;2024-03-08T01:25:57;0.40;1.00
356;DHT22;62514;48.112;11.566;2024-03-08T01:28:24;0.30;1.00
356;DHT22;62514;48.112;11.566;2024-03-08T01:30:50;0.30;1.00
356;DHT22;62514;48.112;11.566;2024-03-08T01:33:25;0.40;1.00
356;DHT22;62514;48.112;11.566;2024-03-08T01:35:52;0.40;1.00
356;DHT22;62514;48.112;11.566;2024-03-08T01:38:19;0.40;1.00
356;DHT22;62514;48.112;11.566;2024-03-08T01:40:47;0.40;1.00
356;DHT22;62514;48.112;11.566;2024-03-08T01:43:21;0.40;1.00
356;DHT22;62514;48.112;11.566;2024-03-08T01:45:48;0.40;1.00
356;DHT22;62514;48.112;11.566;2024-03-08T01:48:15;0.40;1.00
356;DHT22;62514;48.112;11.566;2024-03-08T01:50:43;0.30;1.00
356;DHT22;62514;48.112;11.566;2024-03-08T01:53:10;0.30;1.00
356;DHT22;62514;48.112;11.566;2024-03-08T01:55:38;0.30;1.00
356;DHT22;62514;48.112;11.566;2024-03-08T01:58:05;0.30;1.00
356;DHT22;62514;48.112;11.566;2024-03-08T02:00:35;0.30;1.00
356;DHT22;62514;48.112;11.566;2024-03-08T02:03:02;0.20;1.00
356;DHT22;62514;48.112;11.566;2024-03-08T02:05:28;0.30;1.00
356;DHT22;62514;48.112;11.566;2024-03-08T02:07:55;0.30;1.00
356;DHT22;62514;48.112;11.566;2024-03-08T02:10:21;0.30;1.00
356;DHT22;62514;48.112;11.566;2024-03-08T02:12:48;0.30;1.00
356;DHT22;62514;48.112;11.566;2024-03-08T02:15:14;0.20;1.00
356;DHT22;62514;48.112;11.566;2024-03-08T02:17:40;0.30;1.00
356;DHT22;62514;48.112;11.566;2024-03-08T02:20:07;0.20;1.00
356;DHT22;62514;48.112;11.566;2024-03-08T02:22:35;0.20;1.00
356;DHT22;62514;48.112;11.566;2024-03-08T02:25:02;0.20;1.00
356;DHT22;62514;48.112;11.566;2024-03-08T02:27:29;0.20;1.00
356;DHT22;62514;48.112;11.566;2024-03-08T02:29:58;0.10;1.00
356;DHT22;62514;48.112;11.566;2024-03-08T02:32:25;0.10;1.00
356;DHT22;62514;48.112;11.566;2024-03-08T02:34:56;0.10;1.00
356;DHT22;62514;48.112;11.566;2024-03-08T02:37:22;0.10;1.00
356;DHT22;62514;48.112;11.566;2024-03-08T02:39:48;0.10;1.00
356;DHT22;62514;48.112;11.566;2024-03-08T02:42:14;0.10;1.00
356;DHT22;62514;48.112;11.566;2024-03-08T02:44:43;0.00;1.00
356;DHT22;62514;48.112;11.566;2024-03-08T02:47:12;0.00;1.00
356;DHT22;62514;48.112;11.566;2024-03-08T02:49:38;0.00;1.00
356;DHT22;62514;48.112;11.566;2024-03-08T02:52:05;0.00;1.00
356;DHT22;62514;48.112;11.566;2024-03-08T02:54:31;0.00;1.00
356;DHT22;62514;48.112;11.566;2024-03-08T02:56:57;0.00;1.00
356;DHT22;62514;48.112;11.566;2024-03-08T02:59:23;0.00;1.00
356;DHT22;62514;48.112;11.566;2024-03-08T03:01:49;0.10;1.00
356;DHT22;62514;48.112;11.566;2024-03-08T03:04:17;0.00;1.00
356;DHT22;62514;48.112;11.566;2024-03-08T03:06:43;0.00;1.00
356;DHT22;62514;48.112;11.566;2024-03-08T03:09:09;0.00;1.00
356;DHT22;62514;48.112;11.566;2024-03-08T03:11:36;0.00;1.00
356;DHT22;62514;48.112;11.566;2024-03-08T03:14:03;0.00;1.00
356;DHT22;62514;48.112;11.566;2024-03-08T03:16:30;0.00;1.00
356;DHT22;62514;48.112;11.566;2024-03-08T03:18:56;0.00;1.00
356;DHT22;62514;48.112;11.566;2024-03-08T03:21:22;0.00;1.40
356;DHT22;62514;48.112;11.566;2024-03-08T03:23:49;0.00;1.50
356;DHT22;62514;48.112;11.566;2024-03-08T03:26:15;0.00;1.20
356;DHT22;62514;48.112;11.566;2024-03-08T03:28:43;-0.10;1.00
356;DHT22;62514;48.112;11.566;2024-03-08T03:31:09;-0.10;1.40
356;DHT22;62514;48.112;11.566;2024-03-08T03:33:40;-0.10;1.50
356;DHT22;62514;48.112;11.566;2024-03-08T03:36:06;-0.10;1.40
356;DHT22;62514;48.112;11.566;2024-03-08T03:38:34;-0.10;1.60
356;DHT22;62514;48.112;11.566;2024-03-08T03:41:00;-0.10;1.70
356;DHT22;62514;48.112;11.566;2024-03-08T03:43:36;-0.10;1.60
356;DHT22;62514;48.112;11.566;2024-03-08T03:46:07;-0.10;1.50
356;DHT22;62514;48.112;11.566;2024-03-08T03:48:36;-0.10;2.10
356;DHT22;62514;48.112;11.566;2024-03-08T03:51:02;-0.10;2.80
356;DHT22;62514;48.112;11.566;2024-03-08T03:53:28;-0.10;2.40
356;DHT22;62514;48.112;11.566;2024-03-08T03:55:54;-0.10;2.60
356;DHT22;62514;48.112;11.566;2024-03-08T03:58:20;-0.10;2.10
356;DHT22;62514;48.112;11.566;2024-03-08T04:00:48;-0.20;2.50
356;DHT22;62514;48.112;11.566;2024-03-08T04:03:15;-0.20;3.00
356;DHT22;62514;48.112;11.566;2024-03-08T04:05:42;-0.20;2.30
356;DHT22;62514;48.112;11.566;2024-03-08T04:08:08;-0.20;3.50
356;DHT22;62514;48.112;11.566;2024-03-08T04:10:34;-0.20;3.80
356;DHT22;62514;48.112;11.566;2024-03-08T04:13:00;-0.20;3.90
356;DHT22;62514;48.112;11.566;2024-03-08T04:15:26;-0.20;3.80
356;DHT22;62514;48.112;11.566;2024-03-08T04:17:52;-0.20;3.80
356;DHT22;62514;48.112;11.566;2024-03-08T04:20:18;-0.20;3.80
356;DHT22;62514;48.112;11.566;2024-03-08T04:22:44;-0.20;3.90
356;DHT22;62514;48.112;11.566;2024-03-08T04:25:12;-0.20;3.90
356;DHT22;62514;48.112;11.566;2024-03-08T04:27:38;-0.20;3.70
356;DHT22;62514;48.112;11.566;2024-03-08T04:30:05;-0.30;3.70
356;DHT22;62514;48.112;11.566;2024-03-08T04:32:33;-0.30;3.90
356;DHT22;62514;48.112;11.566;2024-03-08T04:35:00;-0.30;3.90
356;DHT22;62514;48.112;11.566;2024-03-08T04:37:27;-0.30;3.90
356;DHT22;62514;48.112;11.566;2024-03-08T04:39:55;-0.30;3.90
356;DHT22;62514;48.112;11.566;2024-03-08T04:42:22;-0.40;3.80
356;DHT22;62514;48.112;11.566;2024-03-08T04:44:48;-0.40;3.80
356;DHT22;62514;48.112;11.566;2024-03-08T04:47:15;-0.40;3.80
356;DHT22;62514;48.112;11.566;2024-03-08T04:49:43;-0.30;3.90
356;DHT22;62514;48.112;11.566;2024-03-08T04:52:09;-0.40;3.80
356;DHT22;62514;48.112;11.566;2024-03-08T04:54:35;-0.40;3.80
356;DHT22;62514;48.112;11.566;2024-03-08T04:57:01;-0.40;3.80
356;DHT22;62514;48.112;11.566;2024-03-08T04:59:28;-0.40;3.80
356;DHT22;62514;48.112;11.566;2024-03-08T05:01:54;-0.40;3.90
356;DHT22;62514;48.112;11.566;2024-03-08T05:04:20;-0.40;3.80
356;DHT22;62514;48.112;11.566;2024-03-08T05:06:46;-0.40;3.80
356;DHT22;62514;48.112;11.566;2024-03-08T05:09:12;-0.30;3.90
356;DHT22;62514;48.112;11.566;2024-03-08T05:11:46;-0.30;3.90
356;DHT22;62514;48.112;11.566;2024-03-08T05:14:16;-0.30;3.90
356;DHT22;62514;48.112;11.566;2024-03-08T05:16:46;-0.30;3.90
356;DHT22;62514;48.112;11.566;2024-03-08T05:19:19;-0.30;3.80
356;DHT22;62514;48.112;11.566;2024-03-08T05:21:47;-0.30;3.90
356;DHT22;62514;48.112;11.566;2024-03-08T05:24:13;-0.20;3.90
356;DHT22;62514;48.112;11.566;2024-03-08T05:26:43;-0.20;3.90
356;DHT22;62514;48.112;11.566;2024-03-08T05:29:09;-0.20;3.80
356;DHT22;62514;48.112;11.566;2024-03-08T05:31:49;-0.20;3.90
356;DHT22;62514;48.112;11.566;2024-03-08T05:34:16;-0.20;3.00
356;DHT22;62514;48.112;11.566;2024-03-08T05:36:42;-0.20;3.50
356;DHT22;62514;48.112;11.566;2024-03-08T05:39:13;-0.20;3.80
356;DHT22;62514;48.112;11.566;2024-03-08T05:41:39;-0.20;3.80
356;DHT22;62514;48.112;11.566;2024-03-08T05:44:06;-0.10;3.70
356;DHT22;62514;48.112;11.566;2024-03-08T05:46:32;-0.10;3.70
356;DHT22;62514;48.112;11.566;2024-03-08T05:48:58;-0.10;3.60
356;DHT22;62514;48.112;11.566;2024-03-08T05:51:27;-0.10;2.60
356;DHT22;62514;48.112;11.566;2024-03-08T05:53:53;0.00;2.60
356;DHT22;62514;48.112;11.566;2024-03-08T05:56:22;0.00;4.00
356;DHT22;62514;48.112;11.566;2024-03-08T05:58:49;0.00;2.40
356;DHT22;62514;48.112;11.566;2024-03-08T06:01:16;0.10;2.30
356;DHT22;62514;48.112;11.566;2024-03-08T06:03:42;0.10;2.10
356;DHT22;62514;48.112;11.566;2024-03-08T06:06:14;0.10;1.60
356;DHT22;62514;48.112;11.566;2024-03-08T06:08:41;0.10;1.60
356;DHT22;62514;48.112;11.566;2024-03-08T06:11:09;0.20;1.40
356;DHT22;62514;48.112;11.566;2024-03-08T06:13:35;0.20;1.00
356;DHT22;62514;48.112;11.566;2024-03-08T06:16:02;0.30;1.00
356;DHT22;62514;48.112;11.566;2024-03-08T06:18:36;0.30;1.00
356;DHT22;62514;48.112;11.566;2024-03-08T06:21:03;0.30;1.00
356;DHT22;62514;48.112;11.566;2024-03-08T06:23:37;0.40;1.00
356;DHT22;62514;48.112;11.566;2024-03-08T06:26:04;0.40;1.00
356;DHT22;62514;48.112;11.566;2024-03-08T06:28:31;0.40;1.00
356;DHT22;62514;48.112;11.566;2024-03-08T06:30:59;0.50;1.00
356;DHT22;62514;48.112;11.566;2024-03-08T06:33:25;0.50;1.00
356;DHT22;62514;48.112;11.566;2024-03-08T06:35:54;0.50;1.00
356;DHT22;62514;48.112;11.566;2024-03-08T06:38:23;0.50;1.00
356;DHT22;62514;48.112;11.566;2024-03-08T06:40:50;0.60;1.00
356;DHT22;62514;48.112;11.566;2024-03-08T06:43:17;0.50;1.00
356;DHT22;62514;48.112;11.566;2024-03-08T06:45:44;0.60;1.00
356;DHT22;62514;48.112;11.566;2024-03-08T06:48:18;0.60;1.00
356;DHT22;62514;48.112;11.566;2024-03-08T06:50:45;0.60;1.00
356;DHT22;62514;48.112;11.566;2024-03-08T06:53:12;0.60;1.00
356;DHT22;62514;48.112;11.566;2024-03-08T06:55:39;0.60;1.00
356;DHT22;62514;48.112;11.566;2024-03-08T06:58:06;0.70;1.00
356;DHT22;62514;48.112;11.566;2024-03-08T07:00:37;0.70;1.00
356;DHT22;62514;48.112;11.566;2024-03-08T07:03:03;0.80;1.00
356;DHT22;62514;48.112;11.566;2024-03-08T07:05:30;0.80;1.00
356;DHT22;62514;48.112;11.566;2024-03-08T07:07:56;0.90;1.00
356;DHT22;62514;48.112;11.566;2024-03-08T07:10:22;1.10;1.00
356;DHT22;62514;48.112;11.566;2024-03-08T07:12:52;1.20;1.00
356;DHT22;62514;48.112;11.566;2024-03-08T07:15:19;1.20;1.00
356;DHT22;62514;48.112;11.566;2024-03-08T07:17:49;1.10;1.00
356;DHT22;62514;48.112;11.566;2024-03-08T07:20:18;1.20;1.00
356;DHT22;62514;48.112;11.566;2024-03-08T07:22:48;1.30;1.00
356;DHT22;62514;48.112;11.566;2024-03-08T07:25:16;1.30;1.00
356;DHT22;62514;48.112;11.566;2024-03-08T07:27:53;1.40;1.00
356;DHT22;62514;48.112;11.566;2024-03-08T07:30:26;1.40;1.00
356;DHT22;62514;48.112;11.566;2024-03-08T07:33:11;1.30;1.00
356;DHT22;62514;48.112;11.566;2024-03-08T07:35:38;1.20;1.00
356;DHT22;62514;48.112;11.566;2024-03-08T07:38:08;1.30;1.00
356;DHT22;62514;48.112;11.566;2024-03-08T07:40:39;1.30;1.00
356;DHT22;62514;48.112;11.566;2024-03-08T07:43:09;1.30;1.00
356;DHT22;62514;48.112;11.566;2024-03-08T07:45:37;1.40;1.00
356;DHT22;62514;48.112;11.566;2024-03-08T07:48:03;1.50;1.00
356;DHT22;62514;48.112;11.566;2024-03-08T07:50:30;1.50;1.00
356;DHT22;62514;48.112;11.566;2024-03-08T07:52:56;1.50;1.00
356;DHT22;62514;48.112;11.566;2024-03-08T07:55:22;1.70;1.00
356;DHT22;62514;48.112;11.566;2024-03-08T07:57:50;1.80;1.00
356;DHT22;62514;48.112;11.566;2024-03-08T08:00:16;1.90;1.00
356;DHT22;62514;48.112;11.566;2024-03-08T08:02:44;2.10;1.00
356;DHT22;62514;48.112;11.566;2024-03-08T08:05:11;2.20;1.00
356;DHT22;62514;48.112;11.566;2024-03-08T08:07:37;2.30;1.00
356;DHT22;62514;48.112;11.566;2024-03-08T08:10:03;2.30;1.00
356;DHT22;62514;48.112;11.566;2024-03-08T08:12:32;2.50;1.00
356;DHT22;62514;48.112;11.566;2024-03-08T08:15:00;2.60;1.00
356;DHT22;62514;48.112;11.566;2024-03-08T08:17:26;2.80;1.00
356;DHT22;62514;48.112;11.566;2024-03-08T08:19:52;2.90;1.00
356;DHT22;62514;48.112;11.566;2024-03-08T08:22:18;3.00;1.00
356;DHT22;62514;48.112;11.566;2024-03-08T08:24:44;3.00;1.00
356;DHT22;62514;48.112;11.566;2024-03-08T08:27:10;3.00;1.00
356;DHT22;62514;48.112;11.566;2024-03-08T08:29:37;2.70;1.00
356;DHT22;62514;48.112;11.566;2024-03-08T08:32:03;2.80;1.00
356;DHT22;62514;48.112;11.566;2024-03-08T08:34:29;3.10;1.00
356;DHT22;62514;48.112;11.566;2024-03-08T08:36:57;3.30;1.00
356;DHT22;62514;48.112;11.566;2024-03-08T08:39:23;3.50;1.00
356;DHT22;62514;48.112;11.566;2024-03-08T08:41:51;3.50;1.00
356;DHT22;62514;48.112;11.566;2024-03-08T08:44:18;3.70;1.00
356;DHT22;62514;48.112;11.566;2024-03-08T08:46:44;3.80;1.00
356;DHT22;62514;48.112;11.566;2024-03-08T08:49:10;3.80;1.00
356;DHT22;62514;48.112;11.566;2024-03-08T08:51:37;4.00;1.00
356;DHT22;62514;48.112;11.566;2024-03-08T08:54:04;4.10;1.00
356;DHT22;62514;48.112;11.566;2024-03-08T08:56:32;4.00;1.00
356;DHT22;62514;48.112;11.566;2024-03-08T08:58:58;4.00;1.00
356;DHT22;62514;48.112;11.566;2024-03-08T09:01:24;4.20;1.00
356;DHT22;62514;48.112;11.566;2024-03-08T09:03:50;4.50;1.00
356;DHT22;62514;48.112;11.566;2024-03-08T09:06:16;4.60;1.00
356;DHT22;62514;48.112;11.566;2024-03-08T09:08:43;4.90;1.00
356;DHT22;62514;48.112;11.566;2024-03-08T09:11:11;5.30;1.00
356;DHT22;62514;48.112;11.566;2024-03-08T09:13:37;5.40;1.00
356;DHT22;62514;48.112;11.566;2024-03-08T09:16:04;5.30;1.00
356;DHT22;62514;48.112;11.566;2024-03-08T09:18:33;5.20;1.00
356;DHT22;62514;48.112;11.566;2024-03-08T09:20:59;5.30;1.00
356;DHT22;62514;48.112;11.566;2024-03-08T09:23:25;5.70;1.00
356;DHT22;62514;48.112;11.566;2024-03-08T09:25:56;6.20;1.00
356;DHT22;62514;48.112;11.566;2024-03-08T09:28:25;6.30;1.00
356;DHT22;62514;48.112;11.566;2024-03-08T09:30:53;6.00;1.00
356;DHT22;62514;48.112;11.566;2024-03-08T09:33:19;5.80;1.00
356;DHT22;62514;48.112;11.566;2024-03-08T09:35:46;6.10;1.00
356;DHT22;62514;48.112;11.566;2024-03-08T09:38:13;6.30;1.00
356;DHT22;62514;48.112;11.566;2024-03-08T09:40:41;6.50;1.00
356;DHT22;62514;48.112;11.566;2024-03-08T09:43:07;6.90;1.00
356;DHT22;62514;48.112;11.566;2024-03-08T09:45:36;7.40;1.00
356;DHT22;62514;48.112;11.566;2024-03-08T09:48:11;7.30;1.00
356;DHT22;62514;48.112;11.566;2024-03-08T09:50:39;6.80;1.00
356;DHT22;62514;48.112;11.566;2024-03-08T09:53:06;7.00;1.00
356;DHT22;62514;48.112;11.566;2024-03-08T09:55:37;7.40;1.00
356;DHT22;62514;48.112;11.566;2024-03-08T09:58:06;7.60;1.00
356;DHT22;62514;48.112;11.566;2024-03-08T10:00:41;7.80;1.00
356;DHT22;62514;48.112;11.566;2024-03-08T10:03:07;8.20;1.00
356;DHT22;62514;48.112;11.566;2024-03-08T10:05:34;8.60;1.00
356;DHT22;62514;48.112;11.566;2024-03-08T10:08:00;8.70;1.00
356;DHT22;62514;48.112;11.566;2024-03-08T10:10:26;8.10;1.00
356;DHT22;62514;48.112;11.566;2024-03-08T10:12:52;8.00;1.00
356;DHT22;62514;48.112;11.566;2024-03-08T10:15:19;8.10;1.00
356;DHT22;62514;48.112;11.566;2024-03-08T10:17:46;8.50;1.00
356;DHT22;62514;48.112;11.566;2024-03-08T10:20:18;8.60;1.00
356;DHT22;62514;48.112;11.566;2024-03-08T10:22:44;9.10;1.00
356;DHT22;62514;48.112;11.566;2024-03-08T10:25:11;9.20;1.00
356;DHT22;62514;48.112;11.566;2024-03-08T10:27:41;8.90;1.00
356;DHT22;62514;48.112;11.566;2024-03-08T10:30:15;9.00;1.00
356;DHT22;62514;48.112;11.566;2024-03-08T10:32:45;9.00;1.00
356;DHT22;62514;48.112;11.566;2024-03-08T10:35:12;8.70;1.00
356;DHT22;62514;48.112;11.566;2024-03-08T10:37:49;9.30;1.00
356;DHT22;62514;48.112;11.566;2024-03-08T10:40:19;10.10;1.00
356;DHT22;62514;48.112;11.566;2024-03-08T10:42:56;11.30;1.00
356;DHT22;62514;48.112;11.566;2024-03-08T10:45:35;12.20;85.70
356;DHT22;62514;48.112;11.566;2024-03-08T10:50:49;13.00;99.90
356;DHT22;62514;48.112;11.566;2024-03-08T10:53:19;13.90;99.90
356;DHT22;62514;48.112;11.566;2024-03-08T10:55:49;13.50;99.90
356;DHT22;62514;48.112;11.566;2024-03-08T10:58:21;13.60;99.90
356;DHT22;62514;48.112;11.566;2024-03-08T11:00:48;14.40;99.90
356;DHT22;62514;48.112;11.566;2024-03-08T11:03:46;15.00;99.90
356;DHT22;62514;48.112;11.566;2024-03-08T11:08:41;14.60;99.90
356;DHT22;62514;48.112;11.566;2024-03-08T11:11:27;14.80;99.90
356;DHT22;62514;48.112;11.566;2024-03-08T11:13:53;15.20;99.90
356;DHT22;62514;48.112;11.566;2024-03-08T11:19:00;15.00;99.90
356;DHT22;62514;48.112;11.566;2024-03-08T11:21:36;14.70;99.90
356;DHT22;62514;48.112;11.566;2024-03-08T11:24:10;15.20;99.90
356;DHT22;62514;48.112;11.566;2024-03-08T11:26:37;16.10;99.90
356;DHT22;62514;48.112;11.566;2024-03-08T11:32:06;17.30;99.90
356;DHT22;62514;48.112;11.566;2024-03-08T11:34:33;17.60;99.90
356;DHT22;62514;48.112;11.566;2024-03-08T11:36:59;17.60;99.90
356;DHT22;62514;48.112;11.566;2024-03-08T11:39:26;16.70;99.90
356;DHT22;62514;48.112;11.566;2024-03-08T11:41:52;16.90;99.90
356;DHT22;62514;48.112;11.566;2024-03-08T11:44:19;16.60;99.90
356;DHT22;62514;48.112;11.566;2024-03-08T11:46:45;17.00;99.90
356;DHT22;62514;48.112;11.566;2024-03-08T11:49:14;17.70;99.90
356;DHT22;62514;48.112;11.566;2024-03-08T11:51:41;17.20;99.90
356;DHT22;62514;48.112;11.566;2024-03-08T11:54:11;16.60;99.90
356;DHT22;62514;48.112;11.566;2024-03-08T11:56:39;16.70;99.90
356;DHT22;62514;48.112;11.566;2024-03-08T11:59:11;16.80;99.90
356;DHT22;62514;48.112;11.566;2024-03-08T12:01:39;17.20;99.90
356;DHT22;62514;48.112;11.566;2024-03-08T12:04:05;17.20;99.90
356;DHT22;62514;48.112;11.566;2024-03-08T12:06:39;17.30;99.90
356;DHT22;62514;48.112;11.566;2024-03-08T12:09:11;17.50;99.90
356;DHT22;62514;48.112;11.566;2024-03-08T12:11:38;18.40;99.90
356;DHT22;62514;48.112;11.566;2024-03-08T12:14:05;19.50;99.90
356;DHT22;62514;48.112;11.566;2024-03-08T12:16:32;19.70;99.90
356;DHT22;62514;48.112;11.566;2024-03-08T12:18:58;18.90;99.90
356;DHT22;62514;48.112;11.566;2024-03-08T12:21:26;18.70;99.90
356;DHT22;62514;48.112;11.566;2024-03-08T12:24:10;19.20;99.90
356;DHT22;62514;48.112;11.566;2024-03-08T12:26:37;18.90;99.90
356;DHT22;62514;48.112;11.566;2024-03-08T12:29:21;19.10;99.90
356;DHT22;62514;48.112;11.566;2024-03-08T12:31:52;19.00;99.90
356;DHT22;62514;48.112;11.566;2024-03-08T12:34:19;19.80;99.90
356;DHT22;62514;48.112;11.566;2024-03-08T12:36:46;20.10;99.90
356;DHT22;62514;48.112;11.566;2024-03-08T12:39:21;19.80;99.90
356;DHT22;62514;48.112;11.566;2024-03-08T12:41:54;20.70;99.90
356;DHT22;62514;48.112;11.566;2024-03-08T12:44:20;20.70;99.90
356;DHT22;62514;48.112;11.566;2024-03-08T12:46:51;19.30;99.90
356;DHT22;62514;48.112;11.566;2024-03-08T12:49:17;18.10;99.90
356;DHT22;62514;48.112;11.566;2024-03-08T12:51:44;18.50;99.90
356;DHT22;62514;48.112;11.566;2024-03-08T12:54:10;18.70;99.90
356;DHT22;62514;48.112;11.566;2024-03-08T12:56:36;18.40;99.90
356;DHT22;62514;48.112;11.566;2024-03-08T12:59:04;18.60;99.90
356;DHT22;62514;48.112;11.566;2024-03-08T13:01:31;19.00;99.90
356;DHT22;62514;48.112;11.566;2024-03-08T13:04:04;19.50;1.00
356;DHT22;62514;48.112;11.566;2024-03-08T13:06:32;20.50;1.00
356;DHT22;62514;48.112;11.566;2024-03-08T13:08:59;19.70;1.00
356;DHT22;62514;48.112;11.566;2024-03-08T13:11:31;19.30;1.00
356;DHT22;62514;48.112;11.566;2024-03-08T13:14:03;18.80;1.00
356;DHT22;62514;48.112;11.566;2024-03-08T13:16:31;18.70;1.00
356;DHT22;62514;48.112;11.566;2024-03-08T13:18:57;19.70;1.00
356;DHT22;62514;48.112;11.566;2024-03-08T13:21:23;18.90;1.00
356;DHT22;62514;48.112;11.566;2024-03-08T13:23:50;19.40;1.00
356;DHT22;62514;48.112;11.566;2024-03-08T13:26:17;20.60;1.00
356;DHT22;62514;48.112;11.566;2024-03-08T13:28:47;20.70;1.00
356;DHT22;62514;48.112;11.566;2024-03-08T13:31:14;20.20;1.00
356;DHT22;62514;48.112;11.566;2024-03-08T13:33:41;19.90;1.00
356;DHT22;62514;48.112;11.566;2024-03-08T13:36:11;18.90;1.00
356;DHT22;62514;48.112;11.566;2024-03-08T13:38:48;18.60;1.00
356;DHT22;62514;48.112;11.566;2024-03-08T13:41:15;18.80;1.00
356;DHT22;62514;48.112;11.566;2024-03-08T13:43:43;18.60;1.00
356;DHT22;62514;48.112;11.566;2024-03-08T13:46:11;19.50;1.00
356;DHT22;62514;48.112;11.566;2024-03-08T13:48:37;19.50;1.00
356;DHT22;62514;48.112;11.566;2024-03-08T13:51:04;20.10;1.00
356;DHT22;62514;48.112;11.566;2024-03-08T13:53:31;20.70;1.00
356;DHT22;62514;48.112;11.566;2024-03-08T13:55:58;20.90;1.00
356;DHT22;62514;48.112;11.566;2024-03-08T13:58:26;21.00;1.00
356;DHT22;62514;48.112;11.566;2024-03-08T14:00:52;20.60;1.00
356;DHT22;62514;48.112;11.566;2024-03-08T14:03:18;20.40;1.00
356;DHT22;62514;48.112;11.566;2024-03-08T14:05:44;20.90;1.00
356;DHT22;62514;48.112;11.566;2024-03-08T14:08:11;21.80;1.00
356;DHT22;62514;48.112;11.566;2024-03-08T14:10:38;22.70;1.00
356;DHT22;62514;48.112;11.566;2024-03-08T14:13:05;22.50;1.00
356;DHT22;62514;48.112;11.566;2024-03-08T14:15:32;22.00;1.00
356;DHT22;62514;48.112;11.566;2024-03-08T14:18:01;20.70;1.00
356;DHT22;62514;48.112;11.566;2024-03-08T14:20:27;20.90;1.00
356;DHT22;62514;48.112;11.566;2024-03-08T14:22:56;22.50;1.00
356;DHT22;62514;48.112;11.566;2024-03-08T14:25:25;22.10;1.00
356;DHT22;62514;48.112;11.566;2024-03-08T14:27:53;20.10;1.00
356;DHT22;62514;48.112;11.566;2024-03-08T14:30:20;18.90;1.00
356;DHT22;62514;48.112;11.566;2024-03-08T14:33:01;16.50;1.00
356;DHT22;62514;48.112;11.566;2024-03-08T14:35:28;14.00;1.00
356;DHT22;62514;48.112;11.566;2024-03-08T14:37:56;12.90;1.00
356;DHT22;62514;48.112;11.566;2024-03-08T14:40:26;11.80;99.90
356;DHT22;62514;48.112;11.566;2024-03-08T14:42:52;11.40;99.90
356;DHT22;62514;48.112;11.566;2024-03-08T14:45:19;10.90;99.90
356;DHT22;62514;48.112;11.566;2024-03-08T14:47:48;10.60;99.90
356;DHT22;62514;48.112;11.566;2024-03-08T14:50:18;10.60;99.90
356;DHT22;62514;48.112;11.566;2024-03-08T14:52:45;10.60;99.90
356;DHT22;62514;48.112;11.566;2024-03-08T14:55:21;10.30;99.90
356;DHT22;62514;48.112;11.566;2024-03-08T14:57:51;10.30;99.90
356;DHT22;62514;48.112;11.566;2024-03-08T15:00:19;10.30;99.90
356;DHT22;62514;48.112;11.566;2024-03-08T15:03:01;10.30;99.90
356;DHT22;62514;48.112;11.566;2024-03-08T15:06:00;10.30;99.90
356;DHT22;62514;48.112;11.566;2024-03-08T15:08:26;10.10;99.90
356;DHT22;62514;48.112;11.566;2024-03-08T15:10:52;9.90;99.90
356;DHT22;62514;48.112;11.566;2024-03-08T15:13:22;9.70;99.90
356;DHT22;62514;48.112;11.566;2024-03-08T15:15:53;9.60;99.90
356;DHT22;62514;48.112;11.566;2024-03-08T15:18:23;9.60;99.90
356;DHT22;62514;48.112;11.566;2024-03-08T15:21:00;9.50;99.90
356;DHT22;62514;48.112;11.566;2024-03-08T15:23:26;9.60;99.90
356;DHT22;62514;48.112;11.566;2024-03-08T15:25:52;9.60;99.90
356;DHT22;62514;48.112;11.566;2024-03-08T15:28:18;9.60;99.90
356;DHT22;62514;48.112;11.566;2024-03-08T15:30:46;9.60;99.90
356;DHT22;62514;48.112;11.566;2024-03-08T15:33:17;9.50;99.90
356;DHT22;62514;48.112;11.566;2024-03-08T15:35:50;9.40;99.90
356;DHT22;62514;48.112;11.566;2024-03-08T15:38:24;9.40;99.90
356;DHT22;62514;48.112;11.566;2024-03-08T15:40:50;9.40;99.90
356;DHT22;62514;48.112;11.566;2024-03-08T15:43:17;9.40;99.90
356;DHT22;62514;48.112;11.566;2024-03-08T15:45:45;9.30;99.90
356;DHT22;62514;48.112;11.566;2024-03-08T15:48:15;9.30;99.90
356;DHT22;62514;48.112;11.566;2024-03-08T15:50:42;9.20;99.90
356;DHT22;62514;48.112;11.566;2024-03-08T15:53:08;9.10;99.90
356;DHT22;62514;48.112;11.566;2024-03-08T15:55:34;9.10;99.90
356;DHT22;62514;48.112;11.566;2024-03-08T15:58:01;9.00;99.90
356;DHT22;62514;48.112;11.566;2024-03-08T16:00:27;9.00;99.90
356;DHT22;62514;48.112;11.566;2024-03-08T16:03:04;8.90;99.90
356;DHT22;62514;48.112;11.566;2024-03-08T16:05:40;8.80;99.90
356;DHT22;62514;48.112;11.566;2024-03-08T16:08:13;8.80;99.90
356;DHT22;62514;48.112;11.566;2024-03-08T16:10:55;8.80;99.90
356;DHT22;62514;48.112;11.566;2024-03-08T16:13:26;8.80;99.90
356;DHT22;62514;48.112;11.566;2024-03-08T16:15:56;8.80;99.90
356;DHT22;62514;48.112;11.566;2024-03-08T16:18:22;8.70;99.90
356;DHT22;62514;48.112;11.566;2024-03-08T16:20:53;8.70;99.90
356;DHT22;62514;48.112;11.566;2024-03-08T16:23:20;8.60;99.90